sensor_id;sensor_type;location;lat;lon;timestamp;temperature;humidity
19044;DHT22;9654;52.302;8.120;2023-07-02T00:01:50;15.40;99.90
19044;DHT22;9654;52.302;8.120;2023-07-02T00:04:17;15.30;99.90
19044;DHT22;9654;52.302;8.120;2023-07-02T00:06:45;15.30;99.90
19044;DHT22;9654;52.302;8.120;2023-07-02T00:09:12;15.30;99.90
19044;DHT22;9654;52.302;8.120;2023-07-02T00:11:40;15.30;99.90
19044;DHT22;9654;52.302;8.120;2023-07-02T00:14:08;15.30;99.90
19044;DHT22;9654;52.302;8.120;2023-07-02T00:16:38;15.30;99.90
19044;DHT22;9654;52.302;8.120;2023-07-02T00:19:06;15.30;99.90
19044;DHT22;9654;52.302;8.120;2023-07-02T00:21:33;15.30;99.90
19044;DHT22;9654;52.302;8.120;2023-07-02T00:24:00;15.30;99.90
19044;DHT22;9654;52.302;8.120;2023-07-02T00:26:27;15.30;99.90
19044;DHT22;9654;52.302;8.120;2023-07-02T00:28:55;15.30;99.90
19044;DHT22;9654;52.302;8.120;2023-07-02T00:31:23;15.30;99.90
19044;DHT22;9654;52.302;8.120;2023-07-02T00:33:51;15.30;99.90
19044;DHT22;9654;52.302;8.120;2023-07-02T00:36:18;15.40;99.90
19044;DHT22;9654;52.302;8.120;2023-07-02T00:38:46;15.40;99.90
19044;DHT22;9654;52.302;8.120;2023-07-02T00:41:13;15.40;99.90
19044;DHT22;9654;52.302;8.120;2023-07-02T00:43:40;15.40;99.90
19044;DHT22;9654;52.302;8.120;2023-07-02T00:46:10;15.40;99.90
19044;DHT22;9654;52.302;8.120;2023-07-02T00:48:38;15.50;99.90
19044;DHT22;9654;52.302;8.120;2023-07-02T00:51:07;15.50;99.90
19044;DHT22;9654;52.302;8.120;2023-07-02T00:53:34;15.50;99.90
19044;DHT22;9654;52.302;8.120;2023-07-02T00:56:01;15.50;99.90
19044;DHT22;9654;52.302;8.120;2023-07-02T00:58:28;15.50;99.90
19044;DHT22;9654;52.302;8.120;2023-07-02T01:00:54;15.50;99.90
19044;DHT22;9654;52.302;8.120;2023-07-02T01:03:22;15.60;99.90
19044;DHT22;9654;52.302;8.120;2023-07-02T01:05:49;15.60;99.90
19044;DHT22;9654;52.302;8.120;2023-07-02T01:08:17;15.60;99.90
19044;DHT22;9654;52.302;8.120;2023-07-02T01:10:44;15.60;99.90
19044;DHT22;9654;52.302;8.120;2023-07-02T01:13:14;15.70;99.90
19044;DHT22;9654;52.302;8.120;2023-07-02T01:15:42;15.70;99.90
19044;DHT22;9654;52.302;8.120;2023-07-02T01:18:10;15.70;99.90
19044;DHT22;9654;52.302;8.120;2023-07-02T01:20:40;15.70;99.90
19044;DHT22;9654;52.302;8.120;2023-07-02T01:23:07;15.70;99.90
19044;DHT22;9654;52.302;8.120;2023-07-02T01:25:35;15.70;99.90
19044;DHT22;9654;52.302;8.120;2023-07-02T01:28:02;15.70;99.90
19044;DHT22;9654;52.302;8.120;2023-07-02T01:30:29;15.70;99.90
19044;DHT22;9654;52.302;8.120;2023-07-02T01:32:56;15.70;99.90
19044;DHT22;9654;52.302;8.120;2023-07-02T01:35:23;15.70;99.90
19044;DHT22;9654;52.302;8.120;2023-07-02T01:37:51;15.70;99.90
19044;DHT22;9654;52.302;8.120;2023-07-02T01:40:18;15.70;99.90
19044;DHT22;9654;52.302;8.120;2023-07-02T01:42:45;15.70;99.90
19044;DHT22;9654;52.302;8.120;2023-07-02T01:45:12;15.70;99.90
19044;DHT22;9654;52.302;8.120;2023-07-02T01:47:38;15.80;99.90
19044;DHT22;9654;52.302;8.120;2023-07-02T01:50:06;15.80;99.90
19044;DHT22;9654;52.302;8.120;2023-07-02T01:52:33;15.80;99.90
19044;DHT22;9654;52.302;8.120;2023-07-02T01:55:02;15.80;99.90
19044;DHT22;9654;52.302;8.120;2023-07-02T01:57:29;15.90;99.90
19044;DHT22;9654;52.302;8.120;2023-07-02T01:59:56;15.90;99.90
19044;DHT22;9654;52.302;8.120;2023-07-02T02:02:23;15.90;99.90
19044;DHT22;9654;52.302;8.120;2023-07-02T02:04:50;15.80;99.90
19044;DHT22;9654;52.302;8.120;2023-07-02T02:07:17;15.80;99.90
19044;DHT22;9654;52.302;8.120;2023-07-02T02:09:44;15.80;99.90
19044;DHT22;9654;52.302;8.120;2023-07-02T02:12:12;15.80;99.90
19044;DHT22;9654;52.302;8.120;2023-07-02T02:14:39;15.70;99.90
19044;DHT22;9654;52.302;8.120;2023-07-02T02:17:06;15.70;99.90
19044;DHT22;9654;52.302;8.120;2023-07-02T02:19:33;15.70;99.90
19044;DHT22;9654;52.302;8.120;2023-07-02T02:22:00;15.70;99.90
19044;DHT22;9654;52.302;8.120;2023-07-02T02:24:27;15.70;99.90
19044;DHT22;9654;52.302;8.120;2023-07-02T02:26:54;15.70;99.90
19044;DHT22;9654;52.302;8.120;2023-07-02T02:29:22;15.60;99.90
19044;DHT22;9654;52.302;8.120;2023-07-02T02:31:49;15.60;99.90
19044;DHT22;9654;52.302;8.120;2023-07-02T02:34:15;15.60;99.90
19044;DHT22;9654;52.302;8.120;2023-07-02T02:36:42;15.50;99.90
19044;DHT22;9654;52.302;8.120;2023-07-02T02:39:09;15.50;99.90
19044;DHT22;9654;52.302;8.120;2023-07-02T02:41:36;15.60;99.90
19044;DHT22;9654;52.302;8.120;2023-07-02T02:44:02;15.50;99.90
19044;DHT22;9654;52.302;8.120;2023-07-02T02:46:31;15.50;99.90
19044;DHT22;9654;52.302;8.120;2023-07-02T02:48:58;15.50;99.90
19044;DHT22;9654;52.302;8.120;2023-07-02T02:51:24;15.40;99.90
19044;DHT22;9654;52.302;8.120;2023-07-02T02:53:51;15.50;99.90
19044;DHT22;9654;52.302;8.120;2023-07-02T02:56:18;15.40;99.90
19044;DHT22;9654;52.302;8.120;2023-07-02T02:58:45;15.40;99.90
19044;DHT22;9654;52.302;8.120;2023-07-02T03:01:11;15.40;99.90
19044;DHT22;9654;52.302;8.120;2023-07-02T03:03:40;15.30;99.90
19044;DHT22;9654;52.302;8.120;2023-07-02T03:06:11;15.30;99.90
19044;DHT22;9654;52.302;8.120;2023-07-02T03:08:39;15.30;99.90
19044;DHT22;9654;52.302;8.120;2023-07-02T03:11:06;15.30;99.90
19044;DHT22;9654;52.302;8.120;2023-07-02T03:13:32;15.30;99.90
19044;DHT22;9654;52.302;8.120;2023-07-02T03:15:59;15.20;99.90
19044;DHT22;9654;52.302;8.120;2023-07-02T03:18:26;15.20;99.90
19044;DHT22;9654;52.302;8.120;2023-07-02T03:20:54;15.20;99.90
19044;DHT22;9654;52.302;8.120;2023-07-02T03:23:21;15.30;99.90
19044;DHT22;9654;52.302;8.120;2023-07-02T03:25:48;15.20;99.90
19044;DHT22;9654;52.302;8.120;2023-07-02T03:28:14;15.20;99.90
19044;DHT22;9654;52.302;8.120;2023-07-02T03:30:41;15.10;99.90
19044;DHT22;9654;52.302;8.120;2023-07-02T03:33:09;15.10;99.90
19044;DHT22;9654;52.302;8.120;2023-07-02T03:35:36;15.10;99.90
19044;DHT22;9654;52.302;8.120;2023-07-02T03:38:04;15.00;99.90
19044;DHT22;9654;52.302;8.120;2023-07-02T03:40:31;15.00;99.90
19044;DHT22;9654;52.302;8.120;2023-07-02T03:42:58;14.90;99.90
19044;DHT22;9654;52.302;8.120;2023-07-02T03:45:25;14.90;99.90
19044;DHT22;9654;52.302;8.120;2023-07-02T03:47:51;15.00;99.90
19044;DHT22;9654;52.302;8.120;2023-07-02T03:50:18;15.00;99.90
19044;DHT22;9654;52.302;8.120;2023-07-02T03:52:45;15.10;99.90
19044;DHT22;9654;52.302;8.120;2023-07-02T03:55:14;15.10;99.90
19044;DHT22;9654;52.302;8.120;2023-07-02T03:57:40;15.10;99.90
19044;DHT22;9654;52.302;8.120;2023-07-02T04:00:08;15.00;99.90
19044;DHT22;9654;52.302;8.120;2023-07-02T04:02:36;15.10;99.90
19044;DHT22;9654;52.302;8.120;2023-07-02T04:05:04;15.00;99.90
19044;DHT22;9654;52.302;8.120;2023-07-02T04:07:31;15.10;99.90
19044;DHT22;9654;52.302;8.120;2023-07-02T04:09:58;15.10;99.90
19044;DHT22;9654;52.302;8.120;2023-07-02T04:12:26;15.10;99.90
19044;DHT22;9654;52.302;8.120;2023-07-02T04:14:53;15.10;99.90
19044;DHT22;9654;52.302;8.120;2023-07-02T04:17:20;15.10;99.90
19044;DHT22;9654;52.302;8.120;2023-07-02T04:19:46;15.00;99.90
19044;DHT22;9654;52.302;8.120;2023-07-02T04:22:14;15.00;99.90
19044;DHT22;9654;52.302;8.120;2023-07-02T04:24:41;15.10;99.90
19044;DHT22;9654;52.302;8.120;2023-07-02T04:27:07;15.10;99.90
19044;DHT22;9654;52.302;8.120;2023-07-02T04:29:36;15.10;99.90
19044;DHT22;9654;52.302;8.120;2023-07-02T04:32:03;15.10;99.90
19044;DHT22;9654;52.302;8.120;2023-07-02T04:34:29;15.20;99.90
19044;DHT22;9654;52.302;8.120;2023-07-02T04:36:56;15.30;99.90
19044;DHT22;9654;52.302;8.120;2023-07-02T04:39:23;15.30;99.90
19044;DHT22;9654;52.302;8.120;2023-07-02T04:41:50;15.30;99.90
19044;DHT22;9654;52.302;8.120;2023-07-02T04:44:18;15.30;99.90
19044;DHT22;9654;52.302;8.120;2023-07-02T04:46:47;15.30;99.90
19044;DHT22;9654;52.302;8.120;2023-07-02T04:49:15;15.30;99.90
19044;DHT22;9654;52.302;8.120;2023-07-02T04:51:42;15.20;99.90
19044;DHT22;9654;52.302;8.120;2023-07-02T04:54:08;15.20;99.90
19044;DHT22;9654;52.302;8.120;2023-07-02T04:56:35;15.20;99.90
19044;DHT22;9654;52.302;8.120;2023-07-02T04:59:02;15.10;99.90
19044;DHT22;9654;52.302;8.120;2023-07-02T05:01:29;15.20;99.90
19044;DHT22;9654;52.302;8.120;2023-07-02T05:03:57;15.30;99.90
19044;DHT22;9654;52.302;8.120;2023-07-02T05:06:24;15.30;99.90
19044;DHT22;9654;52.302;8.120;2023-07-02T05:08:50;15.40;99.90
19044;DHT22;9654;52.302;8.120;2023-07-02T05:11:18;15.40;99.90
19044;DHT22;9654;52.302;8.120;2023-07-02T05:13:45;15.40;99.90
19044;DHT22;9654;52.302;8.120;2023-07-02T05:16:11;15.40;99.90
19044;DHT22;9654;52.302;8.120;2023-07-02T05:18:38;15.50;99.90
19044;DHT22;9654;52.302;8.120;2023-07-02T05:21:07;15.50;99.90
19044;DHT22;9654;52.302;8.120;2023-07-02T05:23:33;15.60;99.90
19044;DHT22;9654;52.302;8.120;2023-07-02T05:26:01;15.60;99.90
19044;DHT22;9654;52.302;8.120;2023-07-02T05:28:28;15.60;99.90
19044;DHT22;9654;52.302;8.120;2023-07-02T05:30:54;15.70;99.90
19044;DHT22;9654;52.302;8.120;2023-07-02T05:33:21;15.70;99.90
19044;DHT22;9654;52.302;8.120;2023-07-02T05:35:48;15.70;99.90
19044;DHT22;9654;52.302;8.120;2023-07-02T05:38:17;15.70;99.90
19044;DHT22;9654;52.302;8.120;2023-07-02T05:40:44;15.60;99.90
19044;DHT22;9654;52.302;8.120;2023-07-02T05:43:11;15.70;99.90
19044;DHT22;9654;52.302;8.120;2023-07-02T05:45:38;15.70;99.90
19044;DHT22;9654;52.302;8.120;2023-07-02T05:48:05;15.80;99.90
19044;DHT22;9654;52.302;8.120;2023-07-02T05:50:35;15.90;99.90
19044;DHT22;9654;52.302;8.120;2023-07-02T05:53:03;16.00;99.90
19044;DHT22;9654;52.302;8.120;2023-07-02T05:55:31;16.00;99.90
19044;DHT22;9654;52.302;8.120;2023-07-02T05:57:58;16.10;99.90
19044;DHT22;9654;52.302;8.120;2023-07-02T06:00:27;16.10;99.90
19044;DHT22;9654;52.302;8.120;2023-07-02T06:02:54;16.20;99.90
19044;DHT22;9654;52.302;8.120;2023-07-02T06:05:20;16.30;99.90
19044;DHT22;9654;52.302;8.120;2023-07-02T06:07:47;16.20;99.90
19044;DHT22;9654;52.302;8.120;2023-07-02T06:10:14;16.20;99.90
19044;DHT22;9654;52.302;8.120;2023-07-02T06:12:43;16.30;99.90
19044;DHT22;9654;52.302;8.120;2023-07-02T06:15:10;16.40;99.90
19044;DHT22;9654;52.302;8.120;2023-07-02T06:17:37;16.50;99.90
19044;DHT22;9654;52.302;8.120;2023-07-02T06:20:06;16.40;99.90
19044;DHT22;9654;52.302;8.120;2023-07-02T06:22:33;16.50;99.90
19044;DHT22;9654;52.302;8.120;2023-07-02T06:25:00;16.40;99.90
19044;DHT22;9654;52.302;8.120;2023-07-02T06:27:26;16.50;99.90
19044;DHT22;9654;52.302;8.120;2023-07-02T06:29:54;16.40;99.90
19044;DHT22;9654;52.302;8.120;2023-07-02T06:32:21;16.40;99.90
19044;DHT22;9654;52.302;8.120;2023-07-02T06:34:48;16.40;99.90
19044;DHT22;9654;52.302;8.120;2023-07-02T06:37:15;16.50;99.90
19044;DHT22;9654;52.302;8.120;2023-07-02T06:39:41;16.60;99.90
19044;DHT22;9654;52.302;8.120;2023-07-02T06:42:08;16.60;99.90
19044;DHT22;9654;52.302;8.120;2023-07-02T06:44:35;16.70;99.90
19044;DHT22;9654;52.302;8.120;2023-07-02T06:47:03;16.80;99.90
19044;DHT22;9654;52.302;8.120;2023-07-02T06:49:30;17.00;99.90
19044;DHT22;9654;52.302;8.120;2023-07-02T06:51:57;17.20;99.90
19044;DHT22;9654;52.302;8.120;2023-07-02T06:54:25;17.10;99.90
19044;DHT22;9654;52.302;8.120;2023-07-02T06:56:52;17.10;99.90
19044;DHT22;9654;52.302;8.120;2023-07-02T06:59:19;17.20;99.90
19044;DHT22;9654;52.302;8.120;2023-07-02T07:01:46;17.30;99.90
19044;DHT22;9654;52.302;8.120;2023-07-02T07:04:14;17.30;99.90
19044;DHT22;9654;52.302;8.120;2023-07-02T07:06:41;17.50;99.90
19044;DHT22;9654;52.302;8.120;2023-07-02T07:09:08;17.50;99.90
19044;DHT22;9654;52.302;8.120;2023-07-02T07:11:35;17.50;99.90
19044;DHT22;9654;52.302;8.120;2023-07-02T07:14:02;17.50;99.90
19044;DHT22;9654;52.302;8.120;2023-07-02T07:16:29;17.50;99.90
19044;DHT22;9654;52.302;8.120;2023-07-02T07:18:56;17.40;99.90
19044;DHT22;9654;52.302;8.120;2023-07-02T07:21:24;17.40;99.90
19044;DHT22;9654;52.302;8.120;2023-07-02T07:23:51;17.40;99.90
19044;DHT22;9654;52.302;8.120;2023-07-02T07:26:17;17.40;99.90
19044;DHT22;9654;52.302;8.120;2023-07-02T07:28:44;17.50;99.90
19044;DHT22;9654;52.302;8.120;2023-07-02T07:31:11;17.50;99.90
19044;DHT22;9654;52.302;8.120;2023-07-02T07:33:38;17.30;99.90
19044;DHT22;9654;52.302;8.120;2023-07-02T07:36:05;17.30;99.90
19044;DHT22;9654;52.302;8.120;2023-07-02T07:38:33;17.50;99.90
19044;DHT22;9654;52.302;8.120;2023-07-02T07:41:00;17.70;99.90
19044;DHT22;9654;52.302;8.120;2023-07-02T07:43:26;17.80;99.90
19044;DHT22;9654;52.302;8.120;2023-07-02T07:45:53;17.90;99.90
19044;DHT22;9654;52.302;8.120;2023-07-02T07:48:21;18.00;99.90
19044;DHT22;9654;52.302;8.120;2023-07-02T07:50:48;18.20;99.90
19044;DHT22;9654;52.302;8.120;2023-07-02T07:53:14;18.00;99.90
19044;DHT22;9654;52.302;8.120;2023-07-02T07:55:42;17.90;99.90
19044;DHT22;9654;52.302;8.120;2023-07-02T07:58:09;18.00;99.90
19044;DHT22;9654;52.302;8.120;2023-07-02T08:00:36;18.00;99.90
19044;DHT22;9654;52.302;8.120;2023-07-02T08:03:03;18.10;99.90
19044;DHT22;9654;52.302;8.120;2023-07-02T08:05:30;17.90;99.90
19044;DHT22;9654;52.302;8.120;2023-07-02T08:07:56;17.80;99.90
19044;DHT22;9654;52.302;8.120;2023-07-02T08:10:24;17.80;99.90
19044;DHT22;9654;52.302;8.120;2023-07-02T08:12:54;17.90;99.90
19044;DHT22;9654;52.302;8.120;2023-07-02T08:15:21;18.10;99.90
19044;DHT22;9654;52.302;8.120;2023-07-02T08:17:48;18.20;99.90
19044;DHT22;9654;52.302;8.120;2023-07-02T08:20:17;18.20;99.90
19044;DHT22;9654;52.302;8.120;2023-07-02T08:22:44;18.10;99.90
19044;DHT22;9654;52.302;8.120;2023-07-02T08:25:11;18.10;99.90
19044;DHT22;9654;52.302;8.120;2023-07-02T08:27:37;18.10;99.90
19044;DHT22;9654;52.302;8.120;2023-07-02T08:30:07;18.00;99.90
19044;DHT22;9654;52.302;8.120;2023-07-02T08:32:34;17.90;99.90
19044;DHT22;9654;52.302;8.120;2023-07-02T08:35:01;17.90;99.90
19044;DHT22;9654;52.302;8.120;2023-07-02T08:37:27;18.10;99.90
19044;DHT22;9654;52.302;8.120;2023-07-02T08:39:54;18.10;99.90
19044;DHT22;9654;52.302;8.120;2023-07-02T08:42:21;18.20;99.90
19044;DHT22;9654;52.302;8.120;2023-07-02T08:44:53;18.20;99.90
19044;DHT22;9654;52.302;8.120;2023-07-02T08:47:21;18.30;99.90
19044;DHT22;9654;52.302;8.120;2023-07-02T08:49:49;18.60;99.90
19044;DHT22;9654;52.302;8.120;2023-07-02T08:52:18;18.70;99.90
19044;DHT22;9654;52.302;8.120;2023-07-02T08:54:44;18.90;99.90
19044;DHT22;9654;52.302;8.120;2023-07-02T08:57:11;19.10;99.90
19044;DHT22;9654;52.302;8.120;2023-07-02T08:59:38;19.40;99.90
19044;DHT22;9654;52.302;8.120;2023-07-02T09:02:05;19.50;99.90
19044;DHT22;9654;52.302;8.120;2023-07-02T09:04:34;19.70;99.90
19044;DHT22;9654;52.302;8.120;2023-07-02T09:07:04;19.70;99.90
19044;DHT22;9654;52.302;8.120;2023-07-02T09:09:31;19.50;99.90
19044;DHT22;9654;52.302;8.120;2023-07-02T09:11:58;19.50;99.90
19044;DHT22;9654;52.302;8.120;2023-07-02T09:14:26;19.30;99.90
19044;DHT22;9654;52.302;8.120;2023-07-02T09:17:04;19.40;99.90
19044;DHT22;9654;52.302;8.120;2023-07-02T09:19:31;19.20;99.90
19044;DHT22;9654;52.302;8.120;2023-07-02T09:21:59;19.20;99.90
19044;DHT22;9654;52.302;8.120;2023-07-02T09:24:27;19.50;99.90
19044;DHT22;9654;52.302;8.120;2023-07-02T09:26:56;19.40;99.90
19044;DHT22;9654;52.302;8.120;2023-07-02T09:29:24;19.30;99.90
19044;DHT22;9654;52.302;8.120;2023-07-02T09:31:52;19.20;99.90
19044;DHT22;9654;52.302;8.120;2023-07-02T09:34:19;19.40;99.90
19044;DHT22;9654;52.302;8.120;2023-07-02T09:36:46;19.60;99.90
19044;DHT22;9654;52.302;8.120;2023-07-02T09:39:19;19.80;99.90
19044;DHT22;9654;52.302;8.120;2023-07-02T09:41:48;19.90;99.90
19044;DHT22;9654;52.302;8.120;2023-07-02T09:44:17;19.70;99.90
19044;DHT22;9654;52.302;8.120;2023-07-02T09:46:48;19.20;99.90
19044;DHT22;9654;52.302;8.120;2023-07-02T09:49:20;19.10;99.90
19044;DHT22;9654;52.302;8.120;2023-07-02T09:51:47;19.20;99.90
19044;DHT22;9654;52.302;8.120;2023-07-02T09:54:16;19.50;99.90
19044;DHT22;9654;52.302;8.120;2023-07-02T09:56:45;19.80;99.90
19044;DHT22;9654;52.302;8.120;2023-07-02T09:59:12;20.20;99.90
19044;DHT22;9654;52.302;8.120;2023-07-02T10:01:39;20.30;99.90
19044;DHT22;9654;52.302;8.120;2023-07-02T10:04:13;20.30;99.90
19044;DHT22;9654;52.302;8.120;2023-07-02T10:06:47;20.10;99.90
19044;DHT22;9654;52.302;8.120;2023-07-02T10:09:15;19.90;99.90
19044;DHT22;9654;52.302;8.120;2023-07-02T10:11:43;19.80;99.90
19044;DHT22;9654;52.302;8.120;2023-07-02T10:14:09;19.70;99.90
19044;DHT22;9654;52.302;8.120;2023-07-02T10:16:51;19.60;99.90
19044;DHT22;9654;52.302;8.120;2023-07-02T10:19:19;19.40;99.90
19044;DHT22;9654;52.302;8.120;2023-07-02T10:21:46;19.30;99.90
19044;DHT22;9654;52.302;8.120;2023-07-02T10:24:17;19.00;99.90
19044;DHT22;9654;52.302;8.120;2023-07-02T10:26:54;19.00;99.90
19044;DHT22;9654;52.302;8.120;2023-07-02T10:29:22;19.00;99.90
19044;DHT22;9654;52.302;8.120;2023-07-02T10:31:49;19.60;99.90
19044;DHT22;9654;52.302;8.120;2023-07-02T10:34:16;19.60;99.90
19044;DHT22;9654;52.302;8.120;2023-07-02T10:36:43;19.30;99.90
19044;DHT22;9654;52.302;8.120;2023-07-02T10:39:10;19.20;99.90
19044;DHT22;9654;52.302;8.120;2023-07-02T10:41:38;19.10;99.90
19044;DHT22;9654;52.302;8.120;2023-07-02T10:44:06;19.00;99.90
19044;DHT22;9654;52.302;8.120;2023-07-02T10:46:33;18.80;99.90
19044;DHT22;9654;52.302;8.120;2023-07-02T10:49:00;18.90;99.90
19044;DHT22;9654;52.302;8.120;2023-07-02T10:51:27;19.00;99.90
19044;DHT22;9654;52.302;8.120;2023-07-02T10:53:58;19.10;99.90
19044;DHT22;9654;52.302;8.120;2023-07-02T10:56:26;18.90;99.90
19044;DHT22;9654;52.302;8.120;2023-07-02T10:58:54;19.10;99.90
19044;DHT22;9654;52.302;8.120;2023-07-02T11:01:26;19.40;99.90
19044;DHT22;9654;52.302;8.120;2023-07-02T11:03:57;19.40;99.90
19044;DHT22;9654;52.302;8.120;2023-07-02T11:06:24;19.50;99.90
19044;DHT22;9654;52.302;8.120;2023-07-02T11:08:52;19.60;99.90
19044;DHT22;9654;52.302;8.120;2023-07-02T11:11:20;19.90;99.90
19044;DHT22;9654;52.302;8.120;2023-07-02T11:13:48;20.20;99.90
19044;DHT22;9654;52.302;8.120;2023-07-02T11:16:21;20.00;99.90
19044;DHT22;9654;52.302;8.120;2023-07-02T11:18:52;19.80;99.90
19044;DHT22;9654;52.302;8.120;2023-07-02T11:21:19;19.50;99.90
19044;DHT22;9654;52.302;8.120;2023-07-02T11:23:46;19.20;99.90
19044;DHT22;9654;52.302;8.120;2023-07-02T11:26:13;19.40;99.90
19044;DHT22;9654;52.302;8.120;2023-07-02T11:28:48;19.50;99.90
19044;DHT22;9654;52.302;8.120;2023-07-02T11:31:25;19.80;99.90
19044;DHT22;9654;52.302;8.120;2023-07-02T11:33:53;19.90;99.90
19044;DHT22;9654;52.302;8.120;2023-07-02T11:36:21;19.80;99.90
19044;DHT22;9654;52.302;8.120;2023-07-02T11:38:49;19.80;99.90
19044;DHT22;9654;52.302;8.120;2023-07-02T11:41:17;19.70;99.90
19044;DHT22;9654;52.302;8.120;2023-07-02T11:43:44;19.70;99.90
19044;DHT22;9654;52.302;8.120;2023-07-02T11:46:10;19.60;99.90
19044;DHT22;9654;52.302;8.120;2023-07-02T11:48:39;19.50;99.90
19044;DHT22;9654;52.302;8.120;2023-07-02T11:51:05;19.50;99.90
19044;DHT22;9654;52.302;8.120;2023-07-02T11:53:32;19.60;99.90
19044;DHT22;9654;52.302;8.120;2023-07-02T11:55:59;19.90;99.90
19044;DHT22;9654;52.302;8.120;2023-07-02T11:58:26;20.40;99.90
19044;DHT22;9654;52.302;8.120;2023-07-02T12:00:52;20.70;99.90
19044;DHT22;9654;52.302;8.120;2023-07-02T12:03:19;21.10;99.90
19044;DHT22;9654;52.302;8.120;2023-07-02T12:05:47;21.60;99.90
19044;DHT22;9654;52.302;8.120;2023-07-02T12:08:14;21.80;99.90
19044;DHT22;9654;52.302;8.120;2023-07-02T12:10:41;21.90;99.90
19044;DHT22;9654;52.302;8.120;2023-07-02T12:13:07;22.20;99.90
19044;DHT22;9654;52.302;8.120;2023-07-02T12:15:34;22.30;99.90
19044;DHT22;9654;52.302;8.120;2023-07-02T12:18:01;22.30;99.90
19044;DHT22;9654;52.302;8.120;2023-07-02T12:20:28;22.40;99.90
19044;DHT22;9654;52.302;8.120;2023-07-02T12:22:56;22.40;99.90
19044;DHT22;9654;52.302;8.120;2023-07-02T12:25:23;22.60;99.90
19044;DHT22;9654;52.302;8.120;2023-07-02T12:27:50;22.50;99.90
19044;DHT22;9654;52.302;8.120;2023-07-02T12:30:16;21.80;99.90
19044;DHT22;9654;52.302;8.120;2023-07-02T12:32:44;21.20;99.90
19044;DHT22;9654;52.302;8.120;2023-07-02T12:35:11;20.60;99.90
19044;DHT22;9654;52.302;8.120;2023-07-02T12:37:43;20.30;99.90
19044;DHT22;9654;52.302;8.120;2023-07-02T12:40:12;20.30;99.90
19044;DHT22;9654;52.302;8.120;2023-07-02T12:42:40;20.20;99.90
19044;DHT22;9654;52.302;8.120;2023-07-02T12:45:08;20.30;99.90
19044;DHT22;9654;52.302;8.120;2023-07-02T12:47:36;20.40;99.90
19044;DHT22;9654;52.302;8.120;2023-07-02T12:50:03;20.60;99.90
19044;DHT22;9654;52.302;8.120;2023-07-02T12:52:30;20.80;99.90
19044;DHT22;9654;52.302;8.120;2023-07-02T12:54:56;20.90;99.90
19044;DHT22;9654;52.302;8.120;2023-07-02T12:57:25;20.90;99.90
19044;DHT22;9654;52.302;8.120;2023-07-02T12:59:52;21.50;99.90
19044;DHT22;9654;52.302;8.120;2023-07-02T13:02:19;21.80;99.90
19044;DHT22;9654;52.302;8.120;2023-07-02T13:04:46;22.00;99.90
19044;DHT22;9654;52.302;8.120;2023-07-02T13:07:13;21.90;99.90
19044;DHT22;9654;52.302;8.120;2023-07-02T13:09:40;21.50;99.90
19044;DHT22;9654;52.302;8.120;2023-07-02T13:12:07;21.20;99.90
19044;DHT22;9654;52.302;8.120;2023-07-02T13:14:36;21.30;99.90
19044;DHT22;9654;52.302;8.120;2023-07-02T13:17:03;21.50;99.90
19044;DHT22;9654;52.302;8.120;2023-07-02T13:19:30;21.30;99.90
19044;DHT22;9654;52.302;8.120;2023-07-02T13:21:57;21.20;99.90
19044;DHT22;9654;52.302;8.120;2023-07-02T13:24:24;21.30;99.90
19044;DHT22;9654;52.302;8.120;2023-07-02T13:26:51;21.20;99.90
19044;DHT22;9654;52.302;8.120;2023-07-02T13:29:18;21.10;99.90
19044;DHT22;9654;52.302;8.120;2023-07-02T13:31:46;21.30;99.90
19044;DHT22;9654;52.302;8.120;2023-07-02T13:34:13;21.30;99.60
19044;DHT22;9654;52.302;8.120;2023-07-02T13:36:39;21.60;99.90
19044;DHT22;9654;52.302;8.120;2023-07-02T13:39:06;21.80;99.10
19044;DHT22;9654;52.302;8.120;2023-07-02T13:41:33;21.80;98.90
19044;DHT22;9654;52.302;8.120;2023-07-02T13:44:00;21.70;98.30
19044;DHT22;9654;52.302;8.120;2023-07-02T13:46:27;21.50;98.00
19044;DHT22;9654;52.302;8.120;2023-07-02T13:48:55;21.20;98.20
19044;DHT22;9654;52.302;8.120;2023-07-02T13:51:22;21.20;98.70
19044;DHT22;9654;52.302;8.120;2023-07-02T13:53:48;21.30;97.60
19044;DHT22;9654;52.302;8.120;2023-07-02T13:56:15;21.30;97.90
19044;DHT22;9654;52.302;8.120;2023-07-02T13:59:03;21.30;98.30
19044;DHT22;9654;52.302;8.120;2023-07-02T14:01:30;21.40;97.70
19044;DHT22;9654;52.302;8.120;2023-07-02T14:03:57;21.30;98.00
19044;DHT22;9654;52.302;8.120;2023-07-02T14:06:24;21.30;98.60
19044;DHT22;9654;52.302;8.120;2023-07-02T14:08:51;21.10;98.50
19044;DHT22;9654;52.302;8.120;2023-07-02T14:11:19;21.20;97.70
19044;DHT22;9654;52.302;8.120;2023-07-02T14:13:46;20.90;98.10
19044;DHT22;9654;52.302;8.120;2023-07-02T14:16:14;20.90;99.00
19044;DHT22;9654;52.302;8.120;2023-07-02T14:18:41;21.50;98.50
19044;DHT22;9654;52.302;8.120;2023-07-02T14:21:08;21.80;98.70
19044;DHT22;9654;52.302;8.120;2023-07-02T14:23:35;22.10;98.30
19044;DHT22;9654;52.302;8.120;2023-07-02T14:26:02;22.40;97.60
19044;DHT22;9654;52.302;8.120;2023-07-02T14:28:29;22.20;96.50
19044;DHT22;9654;52.302;8.120;2023-07-02T14:30:56;22.00;96.20
19044;DHT22;9654;52.302;8.120;2023-07-02T14:33:25;21.90;96.80
19044;DHT22;9654;52.302;8.120;2023-07-02T14:35:52;22.20;97.20
19044;DHT22;9654;52.302;8.120;2023-07-02T14:38:19;21.90;96.60
19044;DHT22;9654;52.302;8.120;2023-07-02T14:40:47;21.70;97.10
19044;DHT22;9654;52.302;8.120;2023-07-02T14:43:14;21.30;96.90
19044;DHT22;9654;52.302;8.120;2023-07-02T14:45:47;21.20;97.30
19044;DHT22;9654;52.302;8.120;2023-07-02T14:48:14;20.90;97.10
19044;DHT22;9654;52.302;8.120;2023-07-02T14:50:50;20.80;97.80
19044;DHT22;9654;52.302;8.120;2023-07-02T14:53:17;21.00;97.70
19044;DHT22;9654;52.302;8.120;2023-07-02T14:55:44;21.00;98.20
19044;DHT22;9654;52.302;8.120;2023-07-02T14:58:12;21.10;98.00
19044;DHT22;9654;52.302;8.120;2023-07-02T15:00:43;21.10;97.90
19044;DHT22;9654;52.302;8.120;2023-07-02T15:03:10;21.20;97.80
19044;DHT22;9654;52.302;8.120;2023-07-02T15:05:37;21.60;97.70
19044;DHT22;9654;52.302;8.120;2023-07-02T15:08:05;21.50;97.20
19044;DHT22;9654;52.302;8.120;2023-07-02T15:10:31;21.30;97.10
19044;DHT22;9654;52.302;8.120;2023-07-02T15:12:58;21.50;97.50
19044;DHT22;9654;52.302;8.120;2023-07-02T15:15:25;21.80;97.30
19044;DHT22;9654;52.302;8.120;2023-07-02T15:17:52;21.60;96.60
19044;DHT22;9654;52.302;8.120;2023-07-02T15:20:18;21.30;96.90
19044;DHT22;9654;52.302;8.120;2023-07-02T15:22:45;21.30;97.10
19044;DHT22;9654;52.302;8.120;2023-07-02T15:25:13;21.40;96.90
19044;DHT22;9654;52.302;8.120;2023-07-02T15:27:40;21.70;97.40
19044;DHT22;9654;52.302;8.120;2023-07-02T15:30:07;21.80;96.80
19044;DHT22;9654;52.302;8.120;2023-07-02T15:32:34;21.60;96.90
19044;DHT22;9654;52.302;8.120;2023-07-02T15:35:01;21.30;96.90
19044;DHT22;9654;52.302;8.120;2023-07-02T15:37:28;21.10;96.60
19044;DHT22;9654;52.302;8.120;2023-07-02T15:39:54;21.00;97.20
19044;DHT22;9654;52.302;8.120;2023-07-02T15:42:23;21.00;97.30
19044;DHT22;9654;52.302;8.120;2023-07-02T15:44:53;21.00;97.30
19044;DHT22;9654;52.302;8.120;2023-07-02T15:47:22;21.10;97.10